Isleham, United Kingdom
Current Conditions -  °F | °C
As of 5:58 PM on Thursday 23 Oct 2014 (Local Time) from EGUN Reporting Station
Overcast Overcast  
Wind Chill: 59°   Ceiling: 4500
Heat Index: 59°   Visibility: 6mi
Dew Point: 59°   Wind: 14mph
Humidity: 99%   Direction: 210°SSW
Pressure: 30"   Gusts: NA
Location:  52.34°N, 0.41°E
Report Text: EGUN 231658Z AUTO 21012KT 9999 SCT023 OVC045 15/15 A3000 RMK AO2 SLP162 T01520150 $
Loading
Personal Weather Stations






























Interactive Weather Map
Tropical Storm Tracking
New forecast layout! Learn more

10-Day Weather Forecast

Advertisements
Track Severe Weather on mobile